Time;durP1;ratioP1;P1;durP2;ratioP2;P2;SDS_P1;SDS_P2;PMS_P1;PMS_P2;Temp;Humidity;BMP_temperature;BMP_pressure;BME280_temperature;BME280_humidity;BME280_pressure;Samples;Min_cycle;Max_cycle;Signal;HPM_P1;HPM_P2
2023/08/14 00:00:19;;;;;;;;;;;;;;;;;;5111758;27;19938;-70
2023/08/14 00:04:15;;;;;;;;;;;;;;;;;;5152963;27;20006;-72
2023/08/14 00:06:40;;;;;;;;;;;;;;;;;;5134382;27;19961;-72
2023/08/14 00:11:05;;;;;;;;;;;;;;;;;;5111983;27;20275;-71
2023/08/14 00:13:50;;;;;;;;;;;;;;;;;;5112143;27;19934;-70
2023/08/14 00:16:16;;;;;;;;;;;;;;;;;;5111262;28;19919;-70
2023/08/14 00:18:42;;;;;;;;;;;;;;;;;;5111604;28;19908;-70
2023/08/14 00:24:29;;;;;;;;;;;;;;;;;;5112703;27;19916;-71
2023/08/14 00:26:55;;;;;;;;;;;;;;;;;;5111753;28;20027;-71
2023/08/14 00:29:21;;;;;;;;;;;;;;;;;;5111433;28;19908;-71
2023/08/14 00:31:47;;;;;;;;;;;;;;;;;;5111820;28;19915;-71
2023/08/14 00:34:13;;;;;;;;;;;;;;;;;;5111610;28;19992;-72
2023/08/14 00:36:58;;;;;;;;;;;;;;;;;;5152721;27;19915;-70
2023/08/14 00:39:24;;;;;;;;;;;;;;;;;;5153041;27;19918;-71
2023/08/14 00:43:08;;;;;;;;;;;;;;;;;;5132340;27;19911;-70
2023/08/14 00:49:16;;;;;;;;;;;;;;;;;;5091837;27;19919;-71
2023/08/14 00:51:42;;;;;;;;;;;;;;;;;;5091700;28;19951;-70
2023/08/14 00:54:08;;;;;;;;;;;;;;;;;;5091329;28;19908;-70
2023/08/14 00:56:33;;;;;;;;;;;;;;;;;;5091207;28;19912;-71
2023/08/14 01:00:29;;;;;;;;;;;;;;;;;;5112672;27;19915;-71
2023/08/14 01:04:34;;;;;;;;;;;;;;;;;;5091392;27;19916;-70
2023/08/14 01:11:35;;;;;;;;;;;;;;;;;;5111497;27;19922;-71
2023/08/14 01:14:01;;;;;;;;;;;;;;;;;;5111758;28;20007;-71
2023/08/14 01:18:31;;;;;;;;;;;;;;;;;;5091524;27;19916;-71
2023/08/14 01:20:57;;;;;;;;;;;;;;;;;;5091710;28;19912;-70
2023/08/14 01:23:45;;;;;;;;;;;;;;;;;;5091508;27;20295;-70
2023/08/14 01:29:13;;;;;;;;;;;;;;;;;;5091666;27;20284;-70
2023/08/14 01:31:39;;;;;;;;;;;;;;;;;;5090929;28;19966;-71
2023/08/14 01:34:05;;;;;;;;;;;;;;;;;;5091366;28;19912;-70
2023/08/14 01:36:31;;;;;;;;;;;;;;;;;;5090023;28;20007;-71
2023/08/14 01:42:29;;;;;;;;;;;;;;;;;;5071574;28;19919;-71
2023/08/14 01:44:55;;;;;;;;;;;;;;;;;;5071220;28;19999;-71
2023/08/14 01:47:21;;;;;;;;;;;;;;;;;;5070673;28;19916;-71
2023/08/14 01:51:52;;;;;;;;;;;;;;;;;;5092219;27;19923;-72
2023/08/14 01:54:18;;;;;;;;;;;;;;;;;;5091131;28;19912;-71
2023/08/14 02:00:31;;;;;;;;;;;;;;;;;;5091487;27;19923;-71
2023/08/14 02:03:16;;;;;;;;;;;;;;;;;;5092263;27;19923;-70
2023/08/14 02:05:42;;;;;;;;;;;;;;;;;;5091379;28;19912;-71
2023/08/14 02:09:40;;;;;;;;;;;;;;;;;;5112591;27;19938;-71
2023/08/14 02:13:34;;;;;;;;;;;;;;;;;;5111803;27;20268;-70
2023/08/14 02:16:00;;;;;;;;;;;;;;;;;;5111333;28;20015;-71
2023/08/14 02:18:26;;;;;;;;;;;;;;;;;;5111758;28;20310;-70
2023/08/14 02:22:13;;;;;;;;;;;;;;;;;;5091015;27;19916;-72
2023/08/14 02:24:39;;;;;;;;;;;;;;;;;;5090100;28;20011;-72
2023/08/14 02:27:05;;;;;;;;;;;;;;;;;;5091360;28;19908;-72
2023/08/14 02:34:12;;;;;;;;;;;;;;;;;;5112501;27;19916;-72
2023/08/14 02:38:09;;;;;;;;;;;;;;;;;;5091685;27;19916;-74
2023/08/14 02:47:45;;;;;;;;;;;;;;;;;;5111887;27;19916;-70
2023/08/14 02:50:11;;;;;;;;;;;;;;;;;;5111397;28;20006;-71
2023/08/14 02:52:37;;;;;;;;;;;;;;;;;;5112050;28;20367;-71
2023/08/14 02:55:03;;;;;;;;;;;;;;;;;;5112252;28;20356;-72
2023/08/14 02:57:29;;;;;;;;;;;;;;;;;;5109991;28;20276;-71
2023/08/14 02:59:54;;;;;;;;;;;;;;;;;;5111550;28;19912;-72
2023/08/14 03:02:20;;;;;;;;;;;;;;;;;;5111534;28;19953;-71
2023/08/14 03:05:56;;;;;;;;;;;;;;;;;;5152895;27;19915;-70
2023/08/14 03:08:22;;;;;;;;;;;;;;;;;;5152939;27;19961;-72
2023/08/14 03:10:48;;;;;;;;;;;;;;;;;;5152500;27;19914;-72
2023/08/14 03:15:13;;;;;;;;;;;;;;;;;;5111790;27;19912;-72
2023/08/14 03:17:39;;;;;;;;;;;;;;;;;;5111390;28;20002;-72
2023/08/14 03:21:13;;;;;;;;;;;;;;;;;;5153320;27;19911;-71
2023/08/14 03:23:39;;;;;;;;;;;;;;;;;;5134431;27;19923;-71
2023/08/14 03:26:42;;;;;;;;;;;;;;;;;;5111915;27;20384;-71
2023/08/14 03:29:08;;;;;;;;;;;;;;;;;;5111741;28;20006;-70
2023/08/14 03:31:33;;;;;;;;;;;;;;;;;;5111268;28;20330;-70
2023/08/14 03:33:59;;;;;;;;;;;;;;;;;;5112286;28;20260;-71
2023/08/14 03:38:53;;;;;;;;;;;;;;;;;;5091160;27;20299;-71
2023/08/14 03:43:14;;;;;;;;;;;;;;;;;;5112478;27;19919;-71
2023/08/14 03:45:40;;;;;;;;;;;;;;;;;;5111399;28;20353;-70
2023/08/14 03:48:06;;;;;;;;;;;;;;;;;;5110286;28;19953;-71
2023/08/14 03:51:09;;;;;;;;;;;;;;;;;;5091560;27;19917;-71
2023/08/14 03:55:12;;;;;;;;;;;;;;;;;;5112516;27;19915;-70
2023/08/14 04:03:25;;;;;;;;;;;;;;;;;;5111833;27;20291;-70
2023/08/14 04:09:09;;;;;;;;;;;;;;;;;;5071292;28;19923;-71
2023/08/14 04:12:32;;;;;;;;;;;;;;;;;;5092301;27;20307;-70
2023/08/14 04:21:44;;;;;;;;;;;;;;;;;;5091275;27;19913;-72
2023/08/14 04:25:01;;;;;;;;;;;;;;;;;;5091971;27;20281;-72
2023/08/14 04:27:27;;;;;;;;;;;;;;;;;;5090954;28;20007;-71
2023/08/14 04:29:53;;;;;;;;;;;;;;;;;;5091328;28;19908;-71
2023/08/14 04:33:12;;;;;;;;;;;;;;;;;;5111805;27;20304;-71
2023/08/14 04:35:38;;;;;;;;;;;;;;;;;;5111369;28;20011;-71
2023/08/14 04:40:02;;;;;;;;;;;;;;;;;;5112271;27;19916;-72
2023/08/14 04:42:28;;;;;;;;;;;;;;;;;;5111331;28;20011;-72
2023/08/14 04:44:54;;;;;;;;;;;;;;;;;;5111632;28;20423;-72
2023/08/14 04:48:44;;;;;;;;;;;;;;;;;;5112091;27;19920;-71
2023/08/14 04:51:10;;;;;;;;;;;;;;;;;;5111773;28;19998;-71
2023/08/14 04:53:36;;;;;;;;;;;;;;;;;;5111622;28;19912;-70
2023/08/14 04:56:44;;;;;;;;;;;;;;;;;;5071233;28;19923;-70
2023/08/14 04:59:28;;;;;;;;;;;;;;;;;;5112162;27;19922;-70
2023/08/14 05:02:20;;;;;;;;;;;;;;;;;;5111924;27;19912;-70
2023/08/14 05:04:46;;;;;;;;;;;;;;;;;;5111358;28;20010;-70
2023/08/14 05:07:32;;;;;;;;;;;;;;;;;;5092128;28;20357;-70
2023/08/14 05:09:58;;;;;;;;;;;;;;;;;;5090961;28;19999;-71
2023/08/14 05:12:24;;;;;;;;;;;;;;;;;;5091319;28;20280;-71
2023/08/14 05:14:49;;;;;;;;;;;;;;;;;;5091254;28;20280;-71
2023/08/14 05:17:15;;;;;;;;;;;;;;;;;;5090779;28;19912;-71
2023/08/14 05:19:42;;;;;;;;;;;;;;;;;;5091175;28;19912;-71
2023/08/14 05:23:56;;;;;;;;;;;;;;;;;;5132059;27;19918;-71
2023/08/14 05:31:27;;;;;;;;;;;;;;;;;;5153337;27;20002;-71
2023/08/14 05:33:53;;;;;;;;;;;;;;;;;;5134793;27;19954;-72
2023/08/14 05:38:47;;;;;;;;;;;;;;;;;;5091767;28;19916;-71
2023/08/14 05:41:13;;;;;;;;;;;;;;;;;;5090049;28;20291;-71
2023/08/14 05:47:58;;;;;;;;;;;;;;;;;;5113213;27;20312;-70
2023/08/14 05:50:43;;;;;;;;;;;;;;;;;;5121653;27;19915;-71
2023/08/14 05:53:09;;;;;;;;;;;;;;;;;;5121488;27;20371;-71
2023/08/14 05:57:07;;;;;;;;;;;;;;;;;;5111400;27;19916;-70
2023/08/14 06:03:31;;;;;;;;;;;;;;;;;;5083659;27;19923;-70
2023/08/14 06:05:57;;;;;;;;;;;;;;;;;;5070601;28;19920;-70
2023/08/14 06:08:23;;;;;;;;;;;;;;;;;;5069394;28;19913;-70
2023/08/14 06:12:56;;;;;;;;;;;;;;;;;;5130384;27;20019;-71
2023/08/14 06:15:24;;;;;;;;;;;;;;;;;;5116031;28;20340;-69
2023/08/14 06:17:59;;;;;;;;;;;;;;;;;;5091976;28;19955;-69
2023/08/14 06:20:28;;;;;;;;;;;;;;;;;;5090874;28;19917;-71
2023/08/14 06:22:54;;;;;;;;;;;;;;;;;;5089925;28;19915;-70
2023/08/14 06:25:20;;;;;;;;;;;;;;;;;;5091304;28;19995;-70
2023/08/14 06:27:46;;;;;;;;;;;;;;;;;;5089298;28;19940;-71
2023/08/14 06:30:12;;;;;;;;;;;;;;;;;;5098529;28;19939;-71
2023/08/14 06:32:38;;;;;;;;;;;;;;;;;;5098113;28;19920;-72
2023/08/14 06:35:04;;;;;;;;;;;;;;;;;;5102840;28;20357;-71
2023/08/14 06:38:46;;;;;;;;;;;;;;;;;;5148044;27;19922;-69
2023/08/14 06:41:13;;;;;;;;;;;;;;;;;;5129367;28;20442;-70
2023/08/14 06:43:39;;;;;;;;;;;;;;;;;;5129099;28;19912;-69
2023/08/14 06:46:05;;;;;;;;;;;;;;;;;;5128936;28;20283;-70
2023/08/14 06:48:32;;;;;;;;;;;;;;;;;;5128309;28;19915;-70
2023/08/14 06:51:01;;;;;;;;;;;;;;;;;;5127756;28;19964;-67
2023/08/14 06:53:27;;;;;;;;;;;;;;;;;;5128475;28;20425;-69
2023/08/14 06:56:55;;;;;;;;;;;;;;;;;;5108180;27;20394;-71
2023/08/14 06:59:21;;;;;;;;;;;;;;;;;;5109178;28;19912;-72
2023/08/14 07:01:47;;;;;;;;;;;;;;;;;;5091991;28;20570;-69
2023/08/14 07:04:13;;;;;;;;;;;;;;;;;;5087252;28;20420;-71
2023/08/14 07:06:39;;;;;;;;;;;;;;;;;;5088441;28;19919;-69
2023/08/14 07:09:05;;;;;;;;;;;;;;;;;;5103807;28;19985;-70
2023/08/14 07:11:36;;;;;;;;;;;;;;;;;;5093773;28;19966;-69
2023/08/14 07:14:02;;;;;;;;;;;;;;;;;;5097176;28;19916;-69
2023/08/14 07:17:41;;;;;;;;;;;;;;;;;;5108817;27;19919;-69
2023/08/14 07:21:23;;;;;;;;;;;;;;;;;;5070944;27;19927;-69
2023/08/14 07:23:50;;;;;;;;;;;;;;;;;;5083722;28;19921;-70
2023/08/14 07:26:54;;;;;;;;;;;;;;;;;;5111358;27;19912;-70
2023/08/14 07:29:20;;;;;;;;;;;;;;;;;;5117705;28;19935;-71
2023/08/14 07:31:46;;;;;;;;;;;;;;;;;;5117524;27;19915;-71
2023/08/14 07:34:15;;;;;;;;;;;;;;;;;;5111099;28;19922;-71
2023/08/14 07:36:44;;;;;;;;;;;;;;;;;;5111357;28;19961;-71
2023/08/14 07:39:09;;;;;;;;;;;;;;;;;;5110858;28;19908;-71
2023/08/14 07:42:28;;;;;;;;;;;;;;;;;;5128752;27;19955;-70
2023/08/14 07:44:54;;;;;;;;;;;;;;;;;;5129631;28;19912;-70
2023/08/14 07:47:20;;;;;;;;;;;;;;;;;;5124563;28;19939;-71
2023/08/14 07:49:46;;;;;;;;;;;;;;;;;;5101678;28;19919;-70
2023/08/14 07:52:12;;;;;;;;;;;;;;;;;;5122850;28;20290;-69
2023/08/14 07:54:58;;;;;;;;;;;;;;;;;;5088807;27;19912;-70
2023/08/14 07:57:24;;;;;;;;;;;;;;;;;;5090420;28;19913;-72
2023/08/14 07:59:50;;;;;;;;;;;;;;;;;;5090372;28;19912;-71
2023/08/14 08:02:16;;;;;;;;;;;;;;;;;;5072745;28;19920;-71
2023/08/14 08:04:42;;;;;;;;;;;;;;;;;;5087686;28;20390;-72
2023/08/14 08:08:26;;;;;;;;;;;;;;;;;;5109012;27;19920;-70
2023/08/14 08:10:52;;;;;;;;;;;;;;;;;;5109430;28;20504;-68
2023/08/14 08:13:34;;;;;;;;;;;;;;;;;;5108781;27;19920;-69
2023/08/14 08:16:00;;;;;;;;;;;;;;;;;;5109458;28;20404;-69
2023/08/14 08:18:26;;;;;;;;;;;;;;;;;;5107992;28;20007;-72
2023/08/14 08:20:52;;;;;;;;;;;;;;;;;;5108839;28;20330;-71
2023/08/14 08:23:18;;;;;;;;;;;;;;;;;;5107860;28;20384;-69
2023/08/14 08:25:44;;;;;;;;;;;;;;;;;;5109316;28;19912;-69
2023/08/14 08:28:10;;;;;;;;;;;;;;;;;;5108046;28;20531;-69
2023/08/14 08:30:36;;;;;;;;;;;;;;;;;;5116519;28;19915;-69
2023/08/14 08:33:02;;;;;;;;;;;;;;;;;;5124153;27;19920;-67
2023/08/14 08:35:28;;;;;;;;;;;;;;;;;;5111004;28;19931;-66
2023/08/14 08:37:54;;;;;;;;;;;;;;;;;;5118109;27;19916;-67
2023/08/14 08:40:20;;;;;;;;;;;;;;;;;;5107387;28;19915;-67
2023/08/14 08:42:46;;;;;;;;;;;;;;;;;;5107602;28;19912;-68
2023/08/14 08:45:12;;;;;;;;;;;;;;;;;;5108694;28;20284;-67
2023/08/14 08:47:38;;;;;;;;;;;;;;;;;;5111844;28;19915;-68
2023/08/14 08:50:04;;;;;;;;;;;;;;;;;;5129233;27;19918;-66
2023/08/14 08:52:30;;;;;;;;;;;;;;;;;;5118502;27;19926;-66
2023/08/14 08:54:56;;;;;;;;;;;;;;;;;;5110059;28;20015;-64
2023/08/14 08:57:22;;;;;;;;;;;;;;;;;;5110630;28;19923;-66
2023/08/14 08:59:48;;;;;;;;;;;;;;;;;;5110587;28;20002;-64
2023/08/14 09:02:14;;;;;;;;;;;;;;;;;;5109265;28;19966;-66
2023/08/14 09:04:40;;;;;;;;;;;;;;;;;;5110467;28;19938;-65
2023/08/14 09:07:47;;;;;;;;;;;;;;;;;;5111536;27;19919;-65
2023/08/14 09:10:13;;;;;;;;;;;;;;;;;;5110841;28;20394;-66
2023/08/14 09:12:39;;;;;;;;;;;;;;;;;;5109782;28;19919;-67
2023/08/14 09:15:56;;;;;;;;;;;;;;;;;;5109922;27;20414;-66
2023/08/14 09:18:22;;;;;;;;;;;;;;;;;;5109744;28;20283;-67
2023/08/14 09:20:48;;;;;;;;;;;;;;;;;;5114396;28;19912;-67
2023/08/14 09:23:14;;;;;;;;;;;;;;;;;;5107876;28;20257;-66
2023/08/14 09:25:40;;;;;;;;;;;;;;;;;;5110499;28;19953;-66
2023/08/14 09:28:05;;;;;;;;;;;;;;;;;;5109965;28;19912;-67
2023/08/14 09:30:31;;;;;;;;;;;;;;;;;;5109251;28;20317;-66
2023/08/14 09:32:57;;;;;;;;;;;;;;;;;;5108867;28;19919;-67
2023/08/14 09:35:23;;;;;;;;;;;;;;;;;;5109977;28;19969;-67
2023/08/14 09:37:49;;;;;;;;;;;;;;;;;;5110017;28;19942;-66
2023/08/14 09:40:16;;;;;;;;;;;;;;;;;;5108095;27;19923;-67
2023/08/14 09:42:42;;;;;;;;;;;;;;;;;;5125142;28;19998;-70
2023/08/14 09:45:08;;;;;;;;;;;;;;;;;;5123253;27;19951;-68
2023/08/14 09:47:34;;;;;;;;;;;;;;;;;;5106973;28;20272;-68
2023/08/14 09:50:00;;;;;;;;;;;;;;;;;;5109380;28;19918;-66
2023/08/14 09:52:26;;;;;;;;;;;;;;;;;;5118477;28;19916;-67
2023/08/14 09:54:52;;;;;;;;;;;;;;;;;;5107855;28;19924;-66
2023/08/14 09:57:18;;;;;;;;;;;;;;;;;;5108719;28;19947;-68
2023/08/14 09:59:44;;;;;;;;;;;;;;;;;;5107365;28;19962;-67
2023/08/14 10:02:10;;;;;;;;;;;;;;;;;;5108129;28;19973;-67
2023/08/14 10:04:37;;;;;;;;;;;;;;;;;;5108263;28;20352;-67
2023/08/14 10:07:03;;;;;;;;;;;;;;;;;;5109913;28;19912;-67
2023/08/14 10:09:29;;;;;;;;;;;;;;;;;;5108376;28;19912;-65
2023/08/14 10:11:54;;;;;;;;;;;;;;;;;;5109972;28;19912;-65
2023/08/14 10:14:20;;;;;;;;;;;;;;;;;;5109814;28;19972;-66
2023/08/14 10:16:46;;;;;;;;;;;;;;;;;;5109733;28;19912;-65
2023/08/14 10:19:12;;;;;;;;;;;;;;;;;;5109346;28;20177;-66
2023/08/14 10:21:38;;;;;;;;;;;;;;;;;;5109915;27;19919;-68
2023/08/14 10:24:04;;;;;;;;;;;;;;;;;;5109495;28;20045;-66
2023/08/14 10:26:30;;;;;;;;;;;;;;;;;;5099384;28;20336;-65
2023/08/14 10:28:57;;;;;;;;;;;;;;;;;;5095948;28;19922;-66
2023/08/14 10:31:24;;;;;;;;;;;;;;;;;;5096299;28;19995;-66
2023/08/14 10:33:51;;;;;;;;;;;;;;;;;;5095931;28;20364;-65
2023/08/14 10:36:17;;;;;;;;;;;;;;;;;;5094126;28;19977;-65
2023/08/14 10:38:46;;;;;;;;;;;;;;;;;;5095491;28;19912;-65
2023/08/14 10:41:12;;;;;;;;;;;;;;;;;;5091508;28;20283;-65
2023/08/14 10:43:38;;;;;;;;;;;;;;;;;;5095690;28;19998;-69
2023/08/14 10:46:05;;;;;;;;;;;;;;;;;;5095389;28;20372;-67
2023/08/14 10:48:31;;;;;;;;;;;;;;;;;;5092113;28;19969;-67
2023/08/14 10:50:57;;;;;;;;;;;;;;;;;;5094258;28;19927;-66
2023/08/14 10:53:23;;;;;;;;;;;;;;;;;;5101710;28;20265;-67
2023/08/14 10:55:49;;;;;;;;;;;;;;;;;;5101862;28;19973;-66
2023/08/14 10:58:15;;;;;;;;;;;;;;;;;;5094080;28;20390;-67
2023/08/14 11:00:41;;;;;;;;;;;;;;;;;;5092309;28;19999;-67
2023/08/14 11:03:07;;;;;;;;;;;;;;;;;;5093388;28;19912;-66
2023/08/14 11:05:33;;;;;;;;;;;;;;;;;;5094463;28;19919;-67
2023/08/14 11:07:59;;;;;;;;;;;;;;;;;;5095116;28;20280;-66
2023/08/14 11:10:31;;;;;;;;;;;;;;;;;;5094532;28;19923;-68
2023/08/14 11:12:57;;;;;;;;;;;;;;;;;;5093762;28;19977;-67
2023/08/14 11:15:23;;;;;;;;;;;;;;;;;;5092641;28;20295;-67
2023/08/14 11:17:49;;;;;;;;;;;;;;;;;;5093387;28;19992;-67
2023/08/14 11:20:16;;;;;;;;;;;;;;;;;;5093577;28;19981;-68
2023/08/14 11:22:42;;;;;;;;;;;;;;;;;;5091664;28;19919;-67
2023/08/14 11:25:07;;;;;;;;;;;;;;;;;;5093203;28;19912;-68
2023/08/14 11:27:33;;;;;;;;;;;;;;;;;;5095264;28;19953;-67
2023/08/14 11:29:59;;;;;;;;;;;;;;;;;;5094767;28;19951;-66
2023/08/14 11:32:25;;;;;;;;;;;;;;;;;;5094089;28;19945;-66
2023/08/14 11:34:51;;;;;;;;;;;;;;;;;;5095319;28;19968;-68
2023/08/14 11:37:17;;;;;;;;;;;;;;;;;;5092354;28;19984;-68
2023/08/14 11:39:43;;;;;;;;;;;;;;;;;;5094249;28;19908;-69
2023/08/14 11:42:09;;;;;;;;;;;;;;;;;;5093335;28;20050;-69
2023/08/14 11:44:35;;;;;;;;;;;;;;;;;;5092903;28;20296;-69
2023/08/14 11:47:03;;;;;;;;;;;;;;;;;;5093581;28;19908;-69
2023/08/14 11:49:30;;;;;;;;;;;;;;;;;;5094521;28;19915;-69
2023/08/14 11:51:56;;;;;;;;;;;;;;;;;;5094286;28;19908;-69
2023/08/14 11:54:22;;;;;;;;;;;;;;;;;;5094703;28;19922;-69
2023/08/14 11:56:48;;;;;;;;;;;;;;;;;;5095269;28;19952;-68
2023/08/14 11:59:15;;;;;;;;;;;;;;;;;;5094685;28;19909;-69
2023/08/14 12:01:41;;;;;;;;;;;;;;;;;;5095116;28;19908;-69
2023/08/14 12:04:07;;;;;;;;;;;;;;;;;;5094943;28;19909;-70
2023/08/14 12:06:33;;;;;;;;;;;;;;;;;;5093234;28;19908;-68
2023/08/14 12:08:59;;;;;;;;;;;;;;;;;;5094803;28;19944;-68
2023/08/14 12:11:25;;;;;;;;;;;;;;;;;;5095195;28;20373;-68
2023/08/14 12:13:51;;;;;;;;;;;;;;;;;;5094173;28;19931;-69
2023/08/14 12:16:17;;;;;;;;;;;;;;;;;;5094794;28;19915;-69
2023/08/14 12:18:43;;;;;;;;;;;;;;;;;;5094328;28;19908;-68
2023/08/14 12:21:09;;;;;;;;;;;;;;;;;;5094842;28;19909;-69
2023/08/14 12:23:35;;;;;;;;;;;;;;;;;;5094628;28;20384;-69
2023/08/14 12:26:01;;;;;;;;;;;;;;;;;;5094368;28;19954;-69
2023/08/14 12:28:27;;;;;;;;;;;;;;;;;;5094559;28;20292;-69
2023/08/14 12:30:53;;;;;;;;;;;;;;;;;;5094441;28;20322;-68
2023/08/14 12:33:19;;;;;;;;;;;;;;;;;;5094057;28;19904;-69
2023/08/14 12:35:46;;;;;;;;;;;;;;;;;;5094328;28;19927;-69
2023/08/14 12:38:12;;;;;;;;;;;;;;;;;;5094407;28;19908;-70
2023/08/14 12:40:37;;;;;;;;;;;;;;;;;;5093935;28;20326;-69
2023/08/14 12:43:03;;;;;;;;;;;;;;;;;;5093047;28;19939;-69
2023/08/14 12:45:29;;;;;;;;;;;;;;;;;;5094881;28;19908;-69
2023/08/14 12:47:55;;;;;;;;;;;;;;;;;;5094103;28;19912;-69
2023/08/14 12:50:21;;;;;;;;;;;;;;;;;;5094271;28;19912;-69
2023/08/14 12:52:47;;;;;;;;;;;;;;;;;;5094195;28;19916;-68
2023/08/14 12:55:14;;;;;;;;;;;;;;;;;;5093671;28;19951;-69
2023/08/14 12:57:40;;;;;;;;;;;;;;;;;;5094407;28;19915;-69
2023/08/14 13:00:06;;;;;;;;;;;;;;;;;;5094064;28;19912;-68
2023/08/14 13:02:32;;;;;;;;;;;;;;;;;;5093754;28;19908;-69
2023/08/14 13:04:58;;;;;;;;;;;;;;;;;;5094023;28;19915;-69
2023/08/14 13:07:23;;;;;;;;;;;;;;;;;;5094121;28;19915;-69
2023/08/14 13:09:49;;;;;;;;;;;;;;;;;;5093615;28;19916;-69
2023/08/14 13:12:15;;;;;;;;;;;;;;;;;;5092663;28;20365;-69
2023/08/14 13:14:41;;;;;;;;;;;;;;;;;;5093671;28;19927;-69
2023/08/14 13:17:07;;;;;;;;;;;;;;;;;;5092339;28;19908;-69
2023/08/14 13:19:33;;;;;;;;;;;;;;;;;;5093821;28;19968;-69
2023/08/14 13:21:59;;;;;;;;;;;;;;;;;;5093712;28;19908;-69
2023/08/14 13:24:25;;;;;;;;;;;;;;;;;;5092595;28;20416;-69
2023/08/14 13:26:51;;;;;;;;;;;;;;;;;;5093851;28;19931;-69
2023/08/14 13:29:17;;;;;;;;;;;;;;;;;;5093374;28;19914;-69
2023/08/14 13:31:44;;;;;;;;;;;;;;;;;;5093809;28;20307;-69
2023/08/14 13:34:10;;;;;;;;;;;;;;;;;;5092421;28;20010;-70
2023/08/14 13:36:36;;;;;;;;;;;;;;;;;;5093354;28;19955;-68
2023/08/14 13:39:02;;;;;;;;;;;;;;;;;;5093679;28;19915;-68
2023/08/14 13:41:28;;;;;;;;;;;;;;;;;;5093575;28;19908;-68
2023/08/14 13:43:54;;;;;;;;;;;;;;;;;;5093188;28;19915;-68
2023/08/14 13:46:20;;;;;;;;;;;;;;;;;;5093586;28;19908;-68
2023/08/14 13:48:46;;;;;;;;;;;;;;;;;;5093836;28;19915;-69
2023/08/14 13:51:12;;;;;;;;;;;;;;;;;;5093101;28;19955;-68
2023/08/14 13:53:38;;;;;;;;;;;;;;;;;;5093801;28;20414;-69
2023/08/14 13:56:04;;;;;;;;;;;;;;;;;;5093523;28;19915;-68
2023/08/14 13:58:30;;;;;;;;;;;;;;;;;;5091723;28;19908;-68
2023/08/14 14:00:56;;;;;;;;;;;;;;;;;;5094301;28;19966;-68
2023/08/14 14:03:22;;;;;;;;;;;;;;;;;;5097305;28;19929;-69
2023/08/14 14:05:48;;;;;;;;;;;;;;;;;;5096746;28;19991;-68
2023/08/14 14:08:14;;;;;;;;;;;;;;;;;;5097215;28;19912;-68
2023/08/14 14:10:40;;;;;;;;;;;;;;;;;;5097219;28;19909;-68
2023/08/14 14:13:06;;;;;;;;;;;;;;;;;;5096691;28;19912;-68
2023/08/14 14:15:32;;;;;;;;;;;;;;;;;;5096790;28;19921;-68
2023/08/14 14:17:58;;;;;;;;;;;;;;;;;;5097007;28;20355;-68
2023/08/14 14:20:24;;;;;;;;;;;;;;;;;;5096550;28;19996;-69
2023/08/14 14:22:50;;;;;;;;;;;;;;;;;;5096951;28;19912;-68
2023/08/14 14:25:16;;;;;;;;;;;;;;;;;;5096434;28;19912;-69
2023/08/14 14:27:42;;;;;;;;;;;;;;;;;;5096953;28;19960;-69
2023/08/14 14:30:08;;;;;;;;;;;;;;;;;;5097138;28;20268;-69
2023/08/14 14:32:34;;;;;;;;;;;;;;;;;;5095084;28;20269;-69
2023/08/14 14:34:59;;;;;;;;;;;;;;;;;;5096578;28;19916;-69
2023/08/14 14:37:25;;;;;;;;;;;;;;;;;;5096709;28;19918;-69
2023/08/14 14:39:51;;;;;;;;;;;;;;;;;;5096243;28;19912;-69
2023/08/14 14:42:18;;;;;;;;;;;;;;;;;;5095198;28;19912;-69
2023/08/14 14:44:46;;;;;;;;;;;;;;;;;;5096510;28;20034;-69
2023/08/14 14:47:12;;;;;;;;;;;;;;;;;;5096345;28;19953;-69
2023/08/14 14:49:38;;;;;;;;;;;;;;;;;;5096428;28;20322;-69
2023/08/14 14:52:04;;;;;;;;;;;;;;;;;;5096453;28;20345;-69
2023/08/14 14:54:30;;;;;;;;;;;;;;;;;;5095878;28;19912;-68
2023/08/14 14:56:56;;;;;;;;;;;;;;;;;;5096332;28;19912;-68
2023/08/14 14:59:22;;;;;;;;;;;;;;;;;;5096327;28;19931;-69
2023/08/14 15:01:48;;;;;;;;;;;;;;;;;;5095767;28;19908;-69
2023/08/14 15:04:14;;;;;;;;;;;;;;;;;;5096121;28;19969;-68
2023/08/14 15:06:40;;;;;;;;;;;;;;;;;;5096076;28;20284;-68
2023/08/14 15:09:06;;;;;;;;;;;;;;;;;;5094371;28;19912;-69
2023/08/14 15:11:31;;;;;;;;;;;;;;;;;;5096039;28;19991;-69
2023/08/14 15:13:57;;;;;;;;;;;;;;;;;;5094508;28;19973;-69
2023/08/14 15:16:23;;;;;;;;;;;;;;;;;;5095578;28;19908;-69
2023/08/14 15:18:49;;;;;;;;;;;;;;;;;;5094567;28;19915;-69
2023/08/14 15:21:15;;;;;;;;;;;;;;;;;;5095783;28;19923;-69
2023/08/14 15:23:41;;;;;;;;;;;;;;;;;;5094130;28;19991;-70
2023/08/14 15:26:07;;;;;;;;;;;;;;;;;;5095654;28;19961;-69
2023/08/14 15:28:33;;;;;;;;;;;;;;;;;;5095346;28;19908;-69
2023/08/14 15:30:59;;;;;;;;;;;;;;;;;;5095563;28;20003;-70
2023/08/14 15:33:25;;;;;;;;;;;;;;;;;;5095767;28;19919;-69
2023/08/14 15:35:51;;;;;;;;;;;;;;;;;;5095141;28;19916;-70
2023/08/14 15:38:17;;;;;;;;;;;;;;;;;;5095591;28;19958;-69
2023/08/14 15:40:43;;;;;;;;;;;;;;;;;;5095434;28;19912;-69
2023/08/14 15:43:09;;;;;;;;;;;;;;;;;;5095151;28;19908;-70
2023/08/14 15:45:35;;;;;;;;;;;;;;;;;;5093950;28;19968;-70
2023/08/14 15:48:01;;;;;;;;;;;;;;;;;;5095541;28;19996;-70
2023/08/14 15:50:27;;;;;;;;;;;;;;;;;;5093550;28;19966;-70
2023/08/14 15:52:53;;;;;;;;;;;;;;;;;;5095231;28;19915;-69
2023/08/14 15:55:19;;;;;;;;;;;;;;;;;;5095206;28;19963;-69
2023/08/14 15:57:45;;;;;;;;;;;;;;;;;;5094592;28;19908;-69
2023/08/14 16:00:10;;;;;;;;;;;;;;;;;;5095378;28;19908;-69
2023/08/14 16:02:36;;;;;;;;;;;;;;;;;;5095062;28;20002;-69
2023/08/14 16:05:03;;;;;;;;;;;;;;;;;;5094824;28;19953;-68
2023/08/14 16:07:29;;;;;;;;;;;;;;;;;;5095199;28;19908;-68
2023/08/14 16:09:55;;;;;;;;;;;;;;;;;;5094926;28;19915;-68
2023/08/14 16:12:21;;;;;;;;;;;;;;;;;;5094576;28;19908;-69
2023/08/14 16:14:47;;;;;;;;;;;;;;;;;;5094599;28;19928;-69
2023/08/14 16:17:13;;;;;;;;;;;;;;;;;;5094825;28;20007;-69
2023/08/14 16:19:39;;;;;;;;;;;;;;;;;;5094335;28;19994;-69
2023/08/14 16:22:05;;;;;;;;;;;;;;;;;;5094587;28;19935;-68
2023/08/14 16:24:30;;;;;;;;;;;;;;;;;;5094002;28;19908;-69
2023/08/14 16:26:56;;;;;;;;;;;;;;;;;;5094146;28;19915;-69
2023/08/14 16:29:24;;;;;;;;;;;;;;;;;;5094460;28;19908;-70
2023/08/14 16:31:50;;;;;;;;;;;;;;;;;;5094161;28;19916;-73
2023/08/14 16:34:16;;;;;;;;;;;;;;;;;;5094394;28;19916;-69
2023/08/14 16:36:42;;;;;;;;;;;;;;;;;;5094470;28;19951;-69
2023/08/14 16:39:08;;;;;;;;;;;;;;;;;;5094471;28;20283;-67
2023/08/14 16:41:33;;;;;;;;;;;;;;;;;;5094520;28;19908;-69
2023/08/14 16:43:59;;;;;;;;;;;;;;;;;;5094304;28;20291;-69
2023/08/14 16:46:25;;;;;;;;;;;;;;;;;;5093939;28;19912;-69
2023/08/14 16:48:51;;;;;;;;;;;;;;;;;;5094500;28;19916;-70
2023/08/14 16:51:17;;;;;;;;;;;;;;;;;;5094307;28;19908;-70
2023/08/14 16:53:44;;;;;;;;;;;;;;;;;;5092558;28;19960;-69
2023/08/14 16:56:10;;;;;;;;;;;;;;;;;;5094178;28;19999;-68
2023/08/14 16:58:36;;;;;;;;;;;;;;;;;;5094147;28;19947;-69
2023/08/14 17:01:02;;;;;;;;;;;;;;;;;;5093581;28;19908;-69
2023/08/14 17:03:28;;;;;;;;;;;;;;;;;;5094131;28;19912;-69
2023/08/14 17:05:54;;;;;;;;;;;;;;;;;;5094081;28;19961;-68
2023/08/14 17:08:21;;;;;;;;;;;;;;;;;;5093498;28;19912;-68
2023/08/14 17:10:50;;;;;;;;;;;;;;;;;;5094004;28;19908;-67
2023/08/14 17:13:16;;;;;;;;;;;;;;;;;;5093849;28;20256;-67
2023/08/14 17:15:43;;;;;;;;;;;;;;;;;;5093282;28;19931;-68
2023/08/14 17:18:09;;;;;;;;;;;;;;;;;;5093918;28;19915;-69
2023/08/14 17:20:35;;;;;;;;;;;;;;;;;;5093812;28;20002;-69
2023/08/14 17:23:01;;;;;;;;;;;;;;;;;;5093432;28;19908;-69
2023/08/14 17:25:27;;;;;;;;;;;;;;;;;;5094150;28;20292;-69
2023/08/14 17:27:53;;;;;;;;;;;;;;;;;;5093959;28;19908;-69
2023/08/14 17:30:19;;;;;;;;;;;;;;;;;;5093400;28;20340;-69
2023/08/14 17:32:45;;;;;;;;;;;;;;;;;;5092443;28;19915;-68
2023/08/14 17:35:11;;;;;;;;;;;;;;;;;;5091957;28;19916;-69
2023/08/14 17:37:37;;;;;;;;;;;;;;;;;;5097589;28;19908;-69
2023/08/14 17:40:03;;;;;;;;;;;;;;;;;;5098119;28;19909;-70
2023/08/14 17:42:29;;;;;;;;;;;;;;;;;;5097360;28;19990;-71
2023/08/14 17:44:55;;;;;;;;;;;;;;;;;;5097673;28;19915;-69
2023/08/14 17:47:22;;;;;;;;;;;;;;;;;;5097674;28;20376;-68
2023/08/14 17:49:48;;;;;;;;;;;;;;;;;;5097169;28;19908;-69
2023/08/14 17:52:14;;;;;;;;;;;;;;;;;;5097565;28;19915;-68
2023/08/14 17:54:40;;;;;;;;;;;;;;;;;;5096143;28;19920;-68
2023/08/14 17:57:06;;;;;;;;;;;;;;;;;;5096788;28;19909;-69
2023/08/14 17:59:32;;;;;;;;;;;;;;;;;;5097408;28;19908;-69
2023/08/14 18:01:58;;;;;;;;;;;;;;;;;;5097263;28;19912;-69
2023/08/14 18:04:24;;;;;;;;;;;;;;;;;;5095657;28;19916;-71
2023/08/14 18:06:50;;;;;;;;;;;;;;;;;;5097392;28;19914;-69
2023/08/14 18:09:16;;;;;;;;;;;;;;;;;;5097578;28;19913;-69
2023/08/14 18:11:42;;;;;;;;;;;;;;;;;;5095491;28;19922;-69
2023/08/14 18:14:08;;;;;;;;;;;;;;;;;;5096852;28;20014;-68
2023/08/14 18:16:34;;;;;;;;;;;;;;;;;;5097056;28;19912;-68
2023/08/14 18:19:00;;;;;;;;;;;;;;;;;;5096726;28;19914;-71
2023/08/14 18:23:17;;;;;;;;;;;;;;;;;;5091389;27;19923;-68
2023/08/14 18:25:43;;;;;;;;;;;;;;;;;;5091083;28;19913;-68
2023/08/14 18:28:09;;;;;;;;;;;;;;;;;;5091255;28;19962;-69
2023/08/14 18:30:35;;;;;;;;;;;;;;;;;;5091345;28;20327;-69
2023/08/14 18:33:01;;;;;;;;;;;;;;;;;;5089524;28;19915;-70
2023/08/14 18:35:27;;;;;;;;;;;;;;;;;;5089842;28;20352;-69
2023/08/14 18:37:53;;;;;;;;;;;;;;;;;;5090863;28;19909;-69